RKD weather

Knox County Regional Airport
Rockland, Maine, United States

Public forecast

Using degrees Fahrenheit for public forecast. Weather courtesy of forecast.io.

Current aviation weather report (METAR) for Knox County Regional Airport

Retrieved 2020/05/30 05:38 UTC (22 minutes ago):

KRKD 300538Z AUTO 21011G18KT 2 1/2SM BR OVC003 16/16 A2982 RMK AO2

Aviation forecast (TAF) for Knox County Regional Airport

Retrieved 2020-05-30 00:39 UTC (5 hours ago):

TAF KRKD 292337Z 3000/3024 21012G18KT P6SM OVC004 FM300200 21013G21KT 1/4SM FG OVC003 FM301300 22012G20KT P6SM VCSH OVC007 FM301500 22011KT P6SM VCSH SCT050 AMD LTD TO CLD VIS AND WIND